📊 Raw Sensor Data
Showing records 46601 to 46625 of 85,072 total
| ID | Distance (ft) | Battery V | Battery A | Int Temp (°F) | Int Humid (%) | Ext Temp (°F) | Solar V | RSSI | SNR | Time Stamp |
|---|---|---|---|---|---|---|---|---|---|---|
| 38484 | -- | 3.90 | -5 | 59 | 43 | 62 | 0.00 | -71 | 8 | 04/21/2025 11:01 PM |
| 38483 | -- | 3.91 | -5 | 60 | 43 | 62 | 0.10 | -70 | 7 | 04/21/2025 10:45 PM |
| 38482 | 15.1 | 3.91 | -5 | 60 | 44 | 62 | 0.00 | -71 | 8 | 04/21/2025 10:30 PM |
| 38481 | -- | 3.91 | -5 | 60 | 44 | 62 | 0.00 | -71 | 8 | 04/21/2025 10:15 PM |
| 38480 | -- | 3.97 | -5 | 61 | 44 | 62 | 0.10 | -70 | 8 | 04/21/2025 10:00 PM |
| 38479 | -- | 3.97 | -5 | 62 | 45 | 63 | 0.00 | -70 | 8 | 04/21/2025 09:45 PM |
| 38478 | -- | 3.97 | -5 | 63 | 45 | 64 | 0.00 | -88 | 7 | 04/21/2025 09:30 PM |
| 38477 | -- | 3.91 | -5 | 64 | 46 | 65 | 0.00 | -84 | 8 | 04/21/2025 09:15 PM |
| 38476 | -- | 3.91 | -5 | 65 | 47 | 65 | 0.00 | -86 | 6 | 04/21/2025 09:00 PM |
| 38475 | -- | 3.91 | -5 | 66 | 47 | 67 | 0.10 | -87 | 7 | 04/21/2025 08:46 PM |
| 38474 | 15.1 | 3.97 | -6 | 68 | 48 | 69 | 0.00 | -85 | 7 | 04/21/2025 08:30 PM |
| 38473 | -- | 3.91 | -5 | 70 | 49 | 69 | 0.00 | -88 | 7 | 04/21/2025 08:15 PM |
| 38472 | -- | 3.91 | -5 | 72 | 50 | 71 | 1.00 | -87 | 7 | 04/21/2025 08:00 PM |
| 38471 | -- | 3.91 | -25 | 75 | 51 | 72 | 4.20 | -87 | 8 | 04/21/2025 07:45 PM |
| 38470 | -- | 3.99 | 0 | 79 | 50 | 75 | 4.50 | -90 | 9 | 04/21/2025 07:30 PM |
| 38469 | -- | 4.00 | 7 | 84 | 49 | 78 | 4.60 | -87 | 8 | 04/21/2025 07:15 PM |
| 38468 | -- | 3.96 | -13 | 87 | 47 | 83 | 4.50 | -85 | 8 | 04/21/2025 07:00 PM |
| 38467 | -- | 4.05 | 7 | 89 | 47 | 80 | 4.50 | -86 | 7 | 04/21/2025 06:45 PM |
| 38466 | -- | 4.04 | 33 | 92 | 46 | 85 | 4.50 | -85 | 7 | 04/21/2025 06:30 PM |
| 38465 | -- | 4.03 | 6 | 92 | 46 | 81 | 5.10 | -88 | 7 | 04/21/2025 06:15 PM |
| 38464 | -- | 3.96 | 6 | 93 | 45 | 83 | 5.10 | -87 | 8 | 04/21/2025 06:00 PM |
| 38463 | -- | 4.12 | 0 | 94 | 44 | 83 | 5.10 | -85 | 8 | 04/21/2025 05:46 PM |
| 38462 | -- | 4.05 | 6 | 95 | 44 | 83 | 5.10 | -85 | 8 | 04/21/2025 05:30 PM |
| 38461 | -- | 3.96 | 0 | 94 | 44 | 84 | 5.10 | -84 | 8 | 04/21/2025 05:15 PM |
| 38460 | -- | 3.98 | 6 | 95 | 43 | 85 | 5.10 | -87 | 8 | 04/21/2025 05:01 PM |